createdAt,value
2022-09-02T00:01:02.368Z,17.50
2022-09-02T00:06:02.772Z,17.50
2022-09-02T00:11:03.538Z,17.40
2022-09-02T00:16:03.768Z,17.40
2022-09-02T00:21:03.822Z,17.30
2022-09-02T00:26:02.299Z,17.30
2022-09-02T00:31:00.644Z,17.20
2022-09-02T00:36:01.070Z,17.20
2022-09-02T00:41:02.301Z,17.10
2022-09-02T00:46:00.650Z,17.10
2022-09-02T00:50:59.721Z,16.80
2022-09-02T00:56:01.855Z,17.00
2022-09-02T01:01:01.447Z,17.00
2022-09-02T01:06:02.470Z,16.90
2022-09-02T01:11:04.749Z,16.90
2022-09-02T01:16:12.129Z,16.80
2022-09-02T01:21:11.061Z,16.80
2022-09-02T01:26:10.972Z,16.80
2022-09-02T01:31:09.378Z,16.80
2022-09-02T01:36:08.818Z,16.70
2022-09-02T01:41:07.342Z,16.60
2022-09-02T01:46:07.578Z,16.60
2022-09-02T01:51:06.421Z,16.50
2022-09-02T01:56:05.138Z,16.50
2022-09-02T02:01:07.928Z,16.50
2022-09-02T02:06:11.281Z,16.40
2022-09-02T02:11:11.462Z,16.40
2022-09-02T02:16:11.646Z,16.30
2022-09-02T02:21:10.305Z,16.30
2022-09-02T02:26:08.956Z,16.30
2022-09-02T02:31:08.078Z,16.30
2022-09-02T02:36:09.623Z,16.20
2022-09-02T02:41:10.344Z,16.20
2022-09-02T02:46:09.318Z,16.10
2022-09-02T02:51:11.153Z,16.00
2022-09-02T02:56:11.519Z,16.00
2022-09-02T03:01:10.151Z,15.90
2022-09-02T03:06:10.416Z,15.80
2022-09-02T03:11:09.448Z,15.80
2022-09-02T03:16:11.738Z,15.70
2022-09-02T03:21:16.103Z,15.70
2022-09-02T03:26:19.365Z,15.70
2022-09-02T03:31:24.094Z,15.70
2022-09-02T03:36:27.180Z,15.70
2022-09-02T03:41:26.859Z,15.70
2022-09-02T03:46:27.122Z,15.70
2022-09-02T03:51:29.249Z,15.70
2022-09-02T03:56:27.866Z,15.70
2022-09-02T04:01:28.998Z,15.70
2022-09-02T04:06:36.043Z,15.60
2022-09-02T04:11:35.577Z,15.60
2022-09-02T04:16:35.312Z,15.60
2022-09-02T04:21:41.694Z,15.50
2022-09-02T04:26:45.062Z,15.50
2022-09-02T04:31:44.518Z,15.50
2022-09-02T04:36:44.348Z,15.50
2022-09-02T04:41:44.035Z,15.50
2022-09-02T04:46:44.500Z,15.40
2022-09-02T04:51:49.118Z,15.40
2022-09-02T04:56:47.611Z,15.40
2022-09-02T05:01:46.576Z,15.40
2022-09-02T05:06:53.197Z,15.40
2022-09-02T05:11:52.140Z,15.40
2022-09-02T05:16:54.969Z,15.40
2022-09-02T05:21:57.609Z,15.40
2022-09-02T05:27:01.031Z,15.40
2022-09-02T05:32:04.210Z,15.40
2022-09-02T05:37:05.447Z,15.30
2022-09-02T05:42:06.791Z,15.40
2022-09-02T05:47:06.285Z,15.40
2022-09-02T05:52:10.209Z,15.50
2022-09-02T05:57:17.436Z,15.50
2022-09-02T06:02:36.151Z,15.70
2022-09-02T06:07:37.839Z,15.80
2022-09-02T06:12:40.691Z,15.90
2022-09-02T06:17:41.524Z,16.10
2022-09-02T06:22:42.680Z,16.20
2022-09-02T06:27:41.404Z,16.40
2022-09-02T06:32:40.529Z,16.50
2022-09-02T06:37:43.398Z,16.70
2022-09-02T06:42:42.571Z,16.90
2022-09-02T06:48:05.699Z,17.10
2022-09-02T06:53:11.845Z,17.30
2022-09-02T06:58:11.736Z,17.50
2022-09-02T07:03:30.017Z,17.70
2022-09-02T07:08:30.389Z,18.00
2022-09-02T07:13:29.461Z,18.20
2022-09-02T07:18:28.396Z,18.40
2022-09-02T07:23:27.476Z,18.60
2022-09-02T07:28:28.025Z,18.70
2022-09-02T07:33:26.668Z,18.90
2022-09-02T07:38:25.147Z,19.20
2022-09-02T07:43:26.372Z,19.40
2022-09-02T07:48:28.069Z,19.60
2022-09-02T07:53:27.567Z,19.90
2022-09-02T07:58:26.695Z,20.10
2022-09-02T08:03:27.053Z,20.30
2022-09-02T08:08:28.418Z,20.50
2022-09-02T08:13:27.777Z,20.70
2022-09-02T08:18:27.797Z,21.10
2022-09-02T08:23:36.707Z,21.30
2022-09-02T08:28:36.281Z,21.50
2022-09-02T08:33:35.957Z,21.70
2022-09-02T08:38:34.348Z,22.00
2022-09-02T08:43:40.150Z,22.10
2022-09-02T08:48:45.301Z,22.20
2022-09-02T08:53:51.247Z,22.30
2022-09-02T08:58:53.035Z,22.60
2022-09-02T09:04:10.735Z,22.80
2022-09-02T09:09:17.471Z,23.00
2022-09-02T09:14:24.909Z,23.20
2022-09-02T09:19:37.486Z,23.50
2022-09-02T09:24:39.339Z,23.70
2022-09-02T09:29:37.755Z,23.80
2022-09-02T09:35:05.027Z,23.90
2022-09-02T09:40:21.625Z,24.10
2022-09-02T09:45:22.875Z,24.20
2022-09-02T09:50:22.765Z,24.40
2022-09-02T09:55:25.318Z,24.50
2022-09-02T10:00:31.980Z,24.50
2022-09-02T10:05:35.367Z,24.60
2022-09-02T10:10:35.675Z,24.70
2022-09-02T10:15:42.465Z,24.80
2022-09-02T10:21:04.874Z,24.90
2022-09-02T10:26:18.877Z,25.10
2022-09-02T10:31:25.621Z,25.20
2022-09-02T10:36:33.976Z,25.30
2022-09-02T10:46:53.970Z,25.30
2022-09-02T10:52:05.482Z,25.30
2022-09-02T10:57:10.232Z,25.30
2022-09-02T11:02:16.127Z,25.30
2022-09-02T11:07:20.609Z,25.20
2022-09-02T11:12:23.456Z,25.20
2022-09-02T11:17:26.178Z,25.10
2022-09-02T11:22:31.283Z,24.90
2022-09-02T11:27:45.117Z,24.80
2022-09-02T11:32:48.615Z,24.70
2022-09-02T11:37:53.520Z,24.70
2022-09-02T11:43:05.022Z,24.70
2022-09-02T11:48:38.920Z,24.80
2022-09-02T11:53:41.672Z,24.80
2022-09-02T11:58:41.802Z,25.00
2022-09-02T12:04:06.845Z,25.10
2022-09-02T12:09:12.021Z,25.30
2022-09-02T12:14:13.737Z,25.60
2022-09-02T12:19:41.904Z,25.90
2022-09-02T12:24:52.757Z,26.20
2022-09-02T12:29:55.690Z,26.50
2022-09-02T12:34:56.686Z,26.70
2022-09-02T12:40:03.278Z,26.80
2022-09-02T12:45:10.964Z,26.80
2022-09-02T12:50:18.353Z,26.70
2022-09-02T12:55:24.982Z,26.50
2022-09-02T13:00:33.104Z,26.50
2022-09-02T13:05:41.053Z,26.40
2022-09-02T13:10:56.147Z,26.40
2022-09-02T13:16:18.375Z,26.30
2022-09-02T13:21:50.832Z,26.30
2022-09-02T13:27:36.668Z,26.20
2022-09-02T13:32:37.490Z,26.10
2022-09-02T13:37:38.200Z,26.00
2022-09-02T13:42:37.342Z,25.90
2022-09-02T13:47:37.704Z,25.80
2022-09-02T13:53:34.369Z,25.70
2022-09-02T13:58:00.589Z,25.60
2022-09-02T14:03:02.978Z,25.50
2022-09-02T14:08:04.087Z,25.40
2022-09-02T14:13:05.168Z,25.30
2022-09-02T14:18:18.155Z,25.20
2022-09-02T14:23:18.238Z,25.20
2022-09-02T14:28:21.577Z,25.10
2022-09-02T14:33:42.221Z,25.10
2022-09-02T14:38:52.460Z,25.00
2022-09-02T14:43:54.081Z,24.80
2022-09-02T14:48:58.073Z,24.60
2022-09-02T14:53:56.466Z,24.50
2022-09-02T14:58:54.926Z,24.40
2022-09-02T15:03:54.686Z,24.40
2022-09-02T15:08:52.966Z,24.30
2022-09-02T15:13:51.319Z,24.20
2022-09-02T15:18:49.759Z,24.20
2022-09-02T15:23:51.301Z,24.20
2022-09-02T15:28:49.751Z,24.20
2022-09-02T15:33:51.710Z,24.10
2022-09-02T15:38:51.538Z,24.10
2022-09-02T15:43:51.100Z,24.10
2022-09-02T15:48:50.096Z,24.10
2022-09-02T15:53:50.074Z,24.20
2022-09-02T15:58:57.889Z,24.30
2022-09-02T16:03:57.875Z,24.40
2022-09-02T16:08:56.615Z,24.30
2022-09-02T16:13:56.526Z,24.20
2022-09-02T16:18:55.651Z,24.10
2022-09-02T16:23:54.026Z,24.00
2022-09-02T16:28:53.712Z,23.90
2022-09-02T16:33:58.020Z,23.80
2022-09-02T16:38:57.370Z,23.80
2022-09-02T16:43:57.143Z,23.70
2022-09-02T16:48:57.179Z,23.50
2022-09-02T16:53:56.883Z,23.50
2022-09-02T16:58:55.940Z,23.50
2022-09-02T17:03:54.332Z,23.50
2022-09-02T17:08:54.141Z,23.40
2022-09-02T17:13:54.571Z,23.20
2022-09-02T17:18:53.808Z,23.10
2022-09-02T17:23:54.670Z,23.00
2022-09-02T17:28:54.835Z,23.00
2022-09-02T17:33:54.781Z,22.90
2022-09-02T17:38:58.939Z,22.80
2022-09-02T17:43:57.877Z,22.60
2022-09-02T17:49:15.943Z,22.60
2022-09-02T17:54:17.096Z,22.50
2022-09-02T17:59:21.546Z,22.50
2022-09-02T18:04:27.743Z,22.40
2022-09-02T18:09:29.378Z,22.40
2022-09-02T18:14:36.673Z,22.20
2022-09-02T18:19:46.247Z,22.20
2022-09-02T18:24:59.668Z,22.10
2022-09-02T18:30:06.465Z,22.00
2022-09-02T18:35:16.627Z,22.00
2022-09-02T18:40:28.543Z,21.90
2022-09-02T18:45:32.174Z,21.80
2022-09-02T18:50:52.235Z,21.70
2022-09-02T18:55:53.912Z,21.70
2022-09-02T19:00:56.759Z,21.70
2022-09-02T19:05:56.794Z,21.60
2022-09-02T19:11:02.066Z,21.60
2022-09-02T19:16:04.129Z,21.50
2022-09-02T19:21:04.160Z,21.50
2022-09-02T19:26:04.068Z,21.40
2022-09-02T19:31:04.431Z,21.30
2022-09-02T19:36:03.076Z,21.20
2022-09-02T19:41:01.747Z,21.00
2022-09-02T19:46:01.500Z,20.90
2022-09-02T19:50:59.810Z,20.80
2022-09-02T19:55:58.150Z,20.80
2022-09-02T20:00:57.099Z,20.70
2022-09-02T20:05:57.090Z,20.70
2022-09-02T20:10:56.792Z,20.70
2022-09-02T20:15:55.745Z,20.70
2022-09-02T20:20:57.422Z,20.60
2022-09-02T20:26:12.919Z,20.50
2022-09-02T20:31:19.079Z,20.50
2022-09-02T20:36:26.653Z,20.40
2022-09-02T20:41:35.009Z,20.30
2022-09-02T20:46:48.113Z,20.30
2022-09-02T20:51:54.895Z,20.20
2022-09-02T20:57:06.161Z,20.20
2022-09-02T21:02:06.091Z,20.10
2022-09-02T21:07:11.654Z,20.00
2022-09-02T21:12:19.679Z,19.90
2022-09-02T21:17:23.623Z,19.70
2022-09-02T21:22:27.120Z,19.70
2022-09-02T21:27:30.057Z,19.60
2022-09-02T21:32:34.948Z,19.40
2022-09-02T21:37:36.893Z,19.40
2022-09-02T21:42:50.667Z,19.40
2022-09-02T21:47:56.984Z,19.40
2022-09-02T21:53:04.973Z,19.30
2022-09-02T21:58:23.199Z,19.30
2022-09-02T22:03:40.047Z,19.30
2022-09-02T22:08:44.688Z,19.30
2022-09-02T22:13:43.143Z,19.20
2022-09-02T22:18:48.978Z,19.20
2022-09-02T22:23:49.261Z,19.20
2022-09-02T22:28:51.473Z,19.00
2022-09-02T22:33:55.855Z,19.00
2022-09-02T22:39:01.165Z,18.90
2022-09-02T22:44:05.155Z,18.80
2022-09-02T22:49:26.606Z,18.90
2022-09-02T22:54:28.010Z,18.80
2022-09-02T22:59:53.772Z,18.70
2022-09-02T23:05:06.480Z,18.70
2022-09-02T23:10:18.812Z,18.70
2022-09-02T23:15:32.474Z,18.70
2022-09-02T23:20:40.275Z,18.70
2022-09-02T23:26:03.869Z,18.70
2022-09-02T23:31:08.786Z,18.70
2022-09-02T23:36:13.991Z,18.70
2022-09-02T23:41:14.976Z,18.60
2022-09-02T23:46:25.146Z,18.60
2022-09-02T23:51:32.250Z,18.60
2022-09-02T23:56:46.632Z,18.70
